Terminal Aerodrome Forecast
Issued by NWS Bismarck, ND

Home | Current Version | Previous Version | Graphics & Text | Print | Product List | Glossary On
Versions: 1 2 3 4 5 6 7 8 9 10 11 12 13 14 15 16
300
FTUS43 KBIS 051129
TAFBIS
TAF
KBIS 051129Z 0512/0612 33005KT 5SM -SN BR OVC035
     FM051300 32005KT P6SM VCSH BKN060
     FM051400 32006KT P6SM BKN110
     FM051600 32008KT P6SM SCT140
     FM052300 26006KT P6SM FEW250
     FM060500 23006KT P6SM SCT250=

USA.gov is the U.S. government's official web portal to all federal, state and local government web resources and services.